sensor_id;sensor_type;location;lat;lon;timestamp;pressure;altitude;pressure_sealevel;temperature;humidity
18500;BME280;9379;52.134;11.576;2023-11-21T00:01:07;100286.19;;;12.67;100.00
18500;BME280;9379;52.134;11.576;2023-11-21T00:03:34;100290.94;;;12.55;100.00
18500;BME280;9379;52.134;11.576;2023-11-21T00:06:01;100282.16;;;12.63;100.00
18500;BME280;9379;52.134;11.576;2023-11-21T00:08:28;100290.09;;;12.55;100.00
18500;BME280;9379;52.134;11.576;2023-11-21T00:10:55;100286.28;;;12.57;100.00
18500;BME280;9379;52.134;11.576;2023-11-21T00:13:22;100284.66;;;12.39;100.00
18500;BME280;9379;52.134;11.576;2023-11-21T00:15:50;100287.09;;;12.58;100.00
18500;BME280;9379;52.134;11.576;2023-11-21T00:18:16;100286.19;;;12.49;100.00
18500;BME280;9379;52.134;11.576;2023-11-21T00:20:43;100291.84;;;12.46;100.00
18500;BME280;9379;52.134;11.576;2023-11-21T00:23:10;100283.94;;;12.54;100.00
18500;BME280;9379;52.134;11.576;2023-11-21T00:25:37;100288.59;;;12.52;100.00
18500;BME280;9379;52.134;11.576;2023-11-21T00:28:04;100287.63;;;12.62;100.00
18500;BME280;9379;52.134;11.576;2023-11-21T00:30:31;100296.41;;;12.54;100.00
18500;BME280;9379;52.134;11.576;2023-11-21T00:33:00;100297.16;;;12.64;100.00
18500;BME280;9379;52.134;11.576;2023-11-21T00:35:27;100296.94;;;12.57;100.00
18500;BME280;9379;52.134;11.576;2023-11-21T00:37:53;100295.34;;;12.47;100.00
18500;BME280;9379;52.134;11.576;2023-11-21T00:40:20;100301.91;;;12.52;100.00
18500;BME280;9379;52.134;11.576;2023-11-21T00:42:47;100304.56;;;12.52;100.00
18500;BME280;9379;52.134;11.576;2023-11-21T00:45:14;100304.34;;;12.46;100.00
18500;BME280;9379;52.134;11.576;2023-11-21T00:47:42;100305.25;;;12.54;100.00
18500;BME280;9379;52.134;11.576;2023-11-21T00:50:10;100299.34;;;12.69;100.00
18500;BME280;9379;52.134;11.576;2023-11-21T00:52:37;100304.84;;;12.49;100.00
18500;BME280;9379;52.134;11.576;2023-11-21T00:55:05;100301.47;;;12.39;100.00
18500;BME280;9379;52.134;11.576;2023-11-21T00:57:33;100311.97;;;12.41;100.00
18500;BME280;9379;52.134;11.576;2023-11-21T01:00:00;100303.75;;;12.34;100.00
18500;BME280;9379;52.134;11.576;2023-11-21T01:02:27;100309.06;;;12.34;100.00
18500;BME280;9379;52.134;11.576;2023-11-21T01:04:54;100315.25;;;12.35;100.00
18500;BME280;9379;52.134;11.576;2023-11-21T01:07:23;100321.31;;;12.45;100.00
18500;BME280;9379;52.134;11.576;2023-11-21T01:09:50;100316.06;;;12.53;100.00
18500;BME280;9379;52.134;11.576;2023-11-21T01:12:16;100318.25;;;12.57;100.00
18500;BME280;9379;52.134;11.576;2023-11-21T01:14:44;100319.94;;;12.59;100.00
18500;BME280;9379;52.134;11.576;2023-11-21T01:17:11;100327.41;;;12.55;100.00
18500;BME280;9379;52.134;11.576;2023-11-21T01:19:38;100334.09;;;12.59;100.00
18500;BME280;9379;52.134;11.576;2023-11-21T01:22:05;100333.09;;;12.60;100.00
18500;BME280;9379;52.134;11.576;2023-11-21T01:24:33;100340.50;;;12.66;100.00
18500;BME280;9379;52.134;11.576;2023-11-21T01:27:00;100343.94;;;12.59;100.00
18500;BME280;9379;52.134;11.576;2023-11-21T01:29:27;100343.59;;;12.62;100.00
18500;BME280;9379;52.134;11.576;2023-11-21T01:31:54;100342.31;;;12.66;100.00
18500;BME280;9379;52.134;11.576;2023-11-21T01:34:22;100342.69;;;12.71;100.00
18500;BME280;9379;52.134;11.576;2023-11-21T01:36:50;100339.16;;;12.62;100.00
18500;BME280;9379;52.134;11.576;2023-11-21T01:39:17;100337.00;;;12.66;100.00
18500;BME280;9379;52.134;11.576;2023-11-21T01:41:50;100342.00;;;12.69;100.00
18500;BME280;9379;52.134;11.576;2023-11-21T01:44:17;100337.09;;;12.82;100.00
18500;BME280;9379;52.134;11.576;2023-11-21T01:46:45;100338.75;;;12.57;100.00
18500;BME280;9379;52.134;11.576;2023-11-21T01:49:13;100337.31;;;12.45;100.00
18500;BME280;9379;52.134;11.576;2023-11-21T01:51:41;100337.72;;;12.32;100.00
18500;BME280;9379;52.134;11.576;2023-11-21T01:54:09;100345.63;;;12.06;100.00
18500;BME280;9379;52.134;11.576;2023-11-21T01:56:37;100350.19;;;11.96;100.00
18500;BME280;9379;52.134;11.576;2023-11-21T01:59:06;100340.22;;;12.16;100.00
18500;BME280;9379;52.134;11.576;2023-11-21T02:01:33;100343.94;;;11.87;100.00
18500;BME280;9379;52.134;11.576;2023-11-21T02:04:00;100343.34;;;12.11;100.00
18500;BME280;9379;52.134;11.576;2023-11-21T02:06:27;100346.00;;;11.93;100.00
18500;BME280;9379;52.134;11.576;2023-11-21T02:08:57;100343.63;;;12.26;100.00
18500;BME280;9379;52.134;11.576;2023-11-21T02:11:25;100338.91;;;12.38;100.00
18500;BME280;9379;52.134;11.576;2023-11-21T02:13:53;100345.47;;;12.43;100.00
18500;BME280;9379;52.134;11.576;2023-11-21T02:16:21;100341.75;;;12.18;100.00
18500;BME280;9379;52.134;11.576;2023-11-21T02:18:49;100341.72;;;12.36;100.00
18500;BME280;9379;52.134;11.576;2023-11-21T02:21:16;100349.28;;;12.41;100.00
18500;BME280;9379;52.134;11.576;2023-11-21T02:23:46;100338.31;;;12.26;100.00
18500;BME280;9379;52.134;11.576;2023-11-21T02:26:12;100348.72;;;12.02;100.00
18500;BME280;9379;52.134;11.576;2023-11-21T02:28:40;100349.13;;;12.07;100.00
18500;BME280;9379;52.134;11.576;2023-11-21T02:31:08;100343.34;;;12.29;100.00
18500;BME280;9379;52.134;11.576;2023-11-21T02:33:34;100357.34;;;12.49;100.00
18500;BME280;9379;52.134;11.576;2023-11-21T02:36:02;100355.22;;;12.52;100.00
18500;BME280;9379;52.134;11.576;2023-11-21T02:38:29;100363.91;;;12.54;100.00
18500;BME280;9379;52.134;11.576;2023-11-21T02:40:58;100362.97;;;12.46;100.00
18500;BME280;9379;52.134;11.576;2023-11-21T02:43:25;100359.25;;;12.56;100.00
18500;BME280;9379;52.134;11.576;2023-11-21T02:45:52;100364.50;;;12.66;100.00
18500;BME280;9379;52.134;11.576;2023-11-21T02:48:19;100367.75;;;12.60;100.00
18500;BME280;9379;52.134;11.576;2023-11-21T02:50:49;100356.09;;;12.61;100.00
18500;BME280;9379;52.134;11.576;2023-11-21T02:53:16;100359.75;;;12.60;100.00
18500;BME280;9379;52.134;11.576;2023-11-21T02:55:44;100372.72;;;12.55;100.00
18500;BME280;9379;52.134;11.576;2023-11-21T02:58:12;100367.47;;;12.45;100.00
18500;BME280;9379;52.134;11.576;2023-11-21T03:00:39;100370.59;;;12.41;100.00
18500;BME280;9379;52.134;11.576;2023-11-21T03:03:07;100371.50;;;12.32;100.00
18500;BME280;9379;52.134;11.576;2023-11-21T03:05:34;100369.97;;;12.47;100.00
18500;BME280;9379;52.134;11.576;2023-11-21T03:08:02;100364.44;;;12.40;100.00
18500;BME280;9379;52.134;11.576;2023-11-21T03:10:29;100369.00;;;12.48;100.00
18500;BME280;9379;52.134;11.576;2023-11-21T03:12:56;100373.19;;;12.50;100.00
18500;BME280;9379;52.134;11.576;2023-11-21T03:15:25;100374.56;;;12.54;100.00
18500;BME280;9379;52.134;11.576;2023-11-21T03:17:52;100379.56;;;12.57;100.00
18500;BME280;9379;52.134;11.576;2023-11-21T03:20:19;100379.06;;;12.54;100.00
18500;BME280;9379;52.134;11.576;2023-11-21T03:22:46;100371.13;;;12.62;100.00
18500;BME280;9379;52.134;11.576;2023-11-21T03:25:13;100389.03;;;12.52;100.00
18500;BME280;9379;52.134;11.576;2023-11-21T03:27:40;100378.06;;;12.37;100.00
18500;BME280;9379;52.134;11.576;2023-11-21T03:30:09;100378.63;;;11.95;100.00
18500;BME280;9379;52.134;11.576;2023-11-21T03:32:37;100387.81;;;11.83;100.00
18500;BME280;9379;52.134;11.576;2023-11-21T03:35:05;100384.56;;;11.89;100.00
18500;BME280;9379;52.134;11.576;2023-11-21T03:37:32;100387.47;;;12.14;100.00
18500;BME280;9379;52.134;11.576;2023-11-21T03:39:59;100392.25;;;11.92;100.00
18500;BME280;9379;52.134;11.576;2023-11-21T03:42:26;100403.97;;;12.00;100.00
18500;BME280;9379;52.134;11.576;2023-11-21T03:44:53;100409.56;;;12.06;100.00
18500;BME280;9379;52.134;11.576;2023-11-21T03:47:20;100398.81;;;11.98;100.00
18500;BME280;9379;52.134;11.576;2023-11-21T03:49:48;100406.31;;;11.85;100.00
18500;BME280;9379;52.134;11.576;2023-11-21T03:52:15;100417.63;;;12.14;100.00
18500;BME280;9379;52.134;11.576;2023-11-21T03:54:42;100419.16;;;12.35;100.00
18500;BME280;9379;52.134;11.576;2023-11-21T03:57:09;100422.00;;;12.33;100.00
18500;BME280;9379;52.134;11.576;2023-11-21T03:59:36;100435.34;;;12.51;100.00
18500;BME280;9379;52.134;11.576;2023-11-21T04:02:06;100438.59;;;12.45;100.00
18500;BME280;9379;52.134;11.576;2023-11-21T04:04:33;100445.69;;;12.54;100.00
18500;BME280;9379;52.134;11.576;2023-11-21T04:07:01;100447.69;;;12.52;100.00
18500;BME280;9379;52.134;11.576;2023-11-21T04:09:28;100449.41;;;12.43;100.00
18500;BME280;9379;52.134;11.576;2023-11-21T04:11:55;100452.44;;;12.48;100.00
18500;BME280;9379;52.134;11.576;2023-11-21T04:14:22;100447.81;;;12.33;100.00
18500;BME280;9379;52.134;11.576;2023-11-21T04:16:49;100453.66;;;12.36;100.00
18500;BME280;9379;52.134;11.576;2023-11-21T04:19:16;100454.13;;;12.49;100.00
18500;BME280;9379;52.134;11.576;2023-11-21T04:21:43;100459.03;;;12.54;100.00
18500;BME280;9379;52.134;11.576;2023-11-21T04:24:11;100463.56;;;12.62;100.00
18500;BME280;9379;52.134;11.576;2023-11-21T04:26:38;100465.28;;;12.63;100.00
18500;BME280;9379;52.134;11.576;2023-11-21T04:29:05;100473.63;;;12.32;100.00
18500;BME280;9379;52.134;11.576;2023-11-21T04:31:32;100475.50;;;12.22;100.00
18500;BME280;9379;52.134;11.576;2023-11-21T04:33:59;100477.81;;;12.07;100.00
18500;BME280;9379;52.134;11.576;2023-11-21T04:36:25;100483.88;;;12.00;100.00
18500;BME280;9379;52.134;11.576;2023-11-21T04:38:52;100490.25;;;12.16;100.00
18500;BME280;9379;52.134;11.576;2023-11-21T04:41:20;100481.03;;;12.11;100.00
18500;BME280;9379;52.134;11.576;2023-11-21T04:43:47;100481.41;;;11.88;100.00
18500;BME280;9379;52.134;11.576;2023-11-21T04:46:14;100493.41;;;12.02;100.00
18500;BME280;9379;52.134;11.576;2023-11-21T04:48:41;100482.47;;;12.05;100.00
18500;BME280;9379;52.134;11.576;2023-11-21T04:51:08;100492.16;;;11.96;100.00
18500;BME280;9379;52.134;11.576;2023-11-21T04:53:37;100492.50;;;11.74;100.00
18500;BME280;9379;52.134;11.576;2023-11-21T04:56:05;100494.56;;;11.90;100.00
18500;BME280;9379;52.134;11.576;2023-11-21T04:58:33;100488.72;;;11.77;100.00
18500;BME280;9379;52.134;11.576;2023-11-21T05:01:01;100502.41;;;11.91;100.00
18500;BME280;9379;52.134;11.576;2023-11-21T05:03:28;100508.63;;;11.73;100.00
18500;BME280;9379;52.134;11.576;2023-11-21T05:05:55;100511.19;;;11.55;100.00
18500;BME280;9379;52.134;11.576;2023-11-21T05:08:22;100507.31;;;11.39;100.00
18500;BME280;9379;52.134;11.576;2023-11-21T05:10:49;100513.59;;;11.48;100.00
18500;BME280;9379;52.134;11.576;2023-11-21T05:13:17;100507.69;;;11.45;100.00
18500;BME280;9379;52.134;11.576;2023-11-21T05:15:45;100521.50;;;11.77;100.00
18500;BME280;9379;52.134;11.576;2023-11-21T05:18:12;100520.31;;;11.52;100.00
18500;BME280;9379;52.134;11.576;2023-11-21T05:20:39;100534.06;;;10.99;100.00
18500;BME280;9379;52.134;11.576;2023-11-21T05:23:06;100535.47;;;11.03;100.00
18500;BME280;9379;52.134;11.576;2023-11-21T05:25:34;100535.31;;;10.66;100.00
18500;BME280;9379;52.134;11.576;2023-11-21T05:28:00;100539.09;;;10.83;100.00
18500;BME280;9379;52.134;11.576;2023-11-21T05:30:28;100549.88;;;10.81;100.00
18500;BME280;9379;52.134;11.576;2023-11-21T05:32:56;100551.53;;;10.73;100.00
18500;BME280;9379;52.134;11.576;2023-11-21T05:35:23;100557.53;;;10.56;100.00
18500;BME280;9379;52.134;11.576;2023-11-21T05:37:50;100548.72;;;10.65;100.00
18500;BME280;9379;52.134;11.576;2023-11-21T05:40:17;100553.66;;;10.89;100.00
18500;BME280;9379;52.134;11.576;2023-11-21T05:42:44;100556.47;;;11.06;100.00
18500;BME280;9379;52.134;11.576;2023-11-21T05:45:11;100556.00;;;10.72;100.00
18500;BME280;9379;52.134;11.576;2023-11-21T05:47:39;100563.31;;;10.90;100.00
18500;BME280;9379;52.134;11.576;2023-11-21T05:50:08;100565.81;;;10.81;100.00
18500;BME280;9379;52.134;11.576;2023-11-21T05:52:37;100571.03;;;11.02;100.00
18500;BME280;9379;52.134;11.576;2023-11-21T05:55:05;100578.03;;;11.03;100.00
18500;BME280;9379;52.134;11.576;2023-11-21T05:57:33;100580.84;;;11.12;100.00
18500;BME280;9379;52.134;11.576;2023-11-21T06:00:03;100577.19;;;11.03;100.00
18500;BME280;9379;52.134;11.576;2023-11-21T06:02:37;100590.31;;;10.85;100.00
18500;BME280;9379;52.134;11.576;2023-11-21T06:05:04;100591.84;;;10.78;100.00
18500;BME280;9379;52.134;11.576;2023-11-21T06:07:32;100587.13;;;11.01;100.00
18500;BME280;9379;52.134;11.576;2023-11-21T06:10:02;100599.94;;;10.67;100.00
18500;BME280;9379;52.134;11.576;2023-11-21T06:12:31;100605.13;;;10.68;100.00
18500;BME280;9379;52.134;11.576;2023-11-21T06:15:01;100608.03;;;10.56;100.00
18500;BME280;9379;52.134;11.576;2023-11-21T06:17:29;100619.97;;;10.40;100.00
18500;BME280;9379;52.134;11.576;2023-11-21T06:19:56;100628.75;;;10.71;100.00
18500;BME280;9379;52.134;11.576;2023-11-21T06:22:23;100625.31;;;10.50;100.00
18500;BME280;9379;52.134;11.576;2023-11-21T06:24:51;100635.38;;;10.77;100.00
18500;BME280;9379;52.134;11.576;2023-11-21T06:27:18;100634.75;;;10.64;100.00
18500;BME280;9379;52.134;11.576;2023-11-21T06:29:45;100628.75;;;10.71;100.00
18500;BME280;9379;52.134;11.576;2023-11-21T06:32:12;100641.25;;;10.80;100.00
18500;BME280;9379;52.134;11.576;2023-11-21T06:34:41;100641.16;;;11.01;100.00
18500;BME280;9379;52.134;11.576;2023-11-21T06:37:08;100646.53;;;10.71;100.00
18500;BME280;9379;52.134;11.576;2023-11-21T06:39:36;100649.22;;;10.80;100.00
18500;BME280;9379;52.134;11.576;2023-11-21T06:42:05;100651.22;;;11.07;100.00
18500;BME280;9379;52.134;11.576;2023-11-21T06:44:32;100653.56;;;10.81;100.00
18500;BME280;9379;52.134;11.576;2023-11-21T06:47:01;100660.75;;;9.88;100.00
18500;BME280;9379;52.134;11.576;2023-11-21T06:49:28;100661.59;;;10.30;100.00
18500;BME280;9379;52.134;11.576;2023-11-21T06:51:56;100662.25;;;10.22;100.00
18500;BME280;9379;52.134;11.576;2023-11-21T06:54:23;100660.22;;;10.36;100.00
18500;BME280;9379;52.134;11.576;2023-11-21T06:56:50;100665.13;;;10.40;100.00
18500;BME280;9379;52.134;11.576;2023-11-21T06:59:20;100669.75;;;10.38;100.00
18500;BME280;9379;52.134;11.576;2023-11-21T07:01:47;100674.91;;;10.40;100.00
18500;BME280;9379;52.134;11.576;2023-11-21T07:04:14;100676.34;;;10.44;100.00
18500;BME280;9379;52.134;11.576;2023-11-21T07:06:41;100675.81;;;10.80;100.00
18500;BME280;9379;52.134;11.576;2023-11-21T07:09:08;100672.06;;;10.93;99.73
18500;BME280;9379;52.134;11.576;2023-11-21T07:11:37;100677.56;;;11.01;99.95
18500;BME280;9379;52.134;11.576;2023-11-21T07:14:04;100676.41;;;10.94;100.00
18500;BME280;9379;52.134;11.576;2023-11-21T07:16:34;100686.75;;;10.97;98.74
18500;BME280;9379;52.134;11.576;2023-11-21T07:19:03;100699.22;;;10.96;98.94
18500;BME280;9379;52.134;11.576;2023-11-21T07:21:31;100697.75;;;10.42;100.00
18500;BME280;9379;52.134;11.576;2023-11-21T07:23:58;100698.88;;;10.80;98.92
18500;BME280;9379;52.134;11.576;2023-11-21T07:26:26;100699.72;;;10.80;98.21
18500;BME280;9379;52.134;11.576;2023-11-21T07:28:53;100705.94;;;10.60;99.30
18500;BME280;9379;52.134;11.576;2023-11-21T07:31:21;100714.59;;;10.93;98.77
18500;BME280;9379;52.134;11.576;2023-11-21T07:33:49;100716.06;;;10.76;98.05
18500;BME280;9379;52.134;11.576;2023-11-21T07:36:17;100716.38;;;10.82;97.94
18500;BME280;9379;52.134;11.576;2023-11-21T07:38:44;100720.34;;;10.58;98.89
18500;BME280;9379;52.134;11.576;2023-11-21T07:41:11;100725.06;;;10.85;98.35
18500;BME280;9379;52.134;11.576;2023-11-21T07:43:41;100723.97;;;10.57;98.95
18500;BME280;9379;52.134;11.576;2023-11-21T07:46:08;100725.00;;;10.65;98.49
18500;BME280;9379;52.134;11.576;2023-11-21T07:48:35;100737.19;;;10.47;98.31
18500;BME280;9379;52.134;11.576;2023-11-21T07:51:03;100733.56;;;10.48;97.97
18500;BME280;9379;52.134;11.576;2023-11-21T07:53:30;100736.75;;;10.42;97.49
18500;BME280;9379;52.134;11.576;2023-11-21T07:55:58;100730.19;;;10.67;97.05
18500;BME280;9379;52.134;11.576;2023-11-21T07:58:25;100740.50;;;10.39;98.72
18500;BME280;9379;52.134;11.576;2023-11-21T08:00:52;100744.91;;;10.50;97.99
18500;BME280;9379;52.134;11.576;2023-11-21T08:03:18;100751.31;;;10.27;98.65
18500;BME280;9379;52.134;11.576;2023-11-21T08:05:46;100751.97;;;10.40;97.83
18500;BME280;9379;52.134;11.576;2023-11-21T08:08:14;100760.56;;;10.53;97.96
18500;BME280;9379;52.134;11.576;2023-11-21T08:10:43;100767.06;;;10.39;97.10
18500;BME280;9379;52.134;11.576;2023-11-21T08:13:13;100774.78;;;10.21;98.08
18500;BME280;9379;52.134;11.576;2023-11-21T08:15:42;100771.53;;;10.39;97.08
18500;BME280;9379;52.134;11.576;2023-11-21T08:18:11;100781.59;;;10.35;95.90
18500;BME280;9379;52.134;11.576;2023-11-21T08:20:38;100789.78;;;10.43;96.42
18500;BME280;9379;52.134;11.576;2023-11-21T08:23:05;100783.34;;;10.46;95.46
18500;BME280;9379;52.134;11.576;2023-11-21T08:25:34;100783.00;;;10.81;95.71
18500;BME280;9379;52.134;11.576;2023-11-21T08:28:01;100790.47;;;10.66;94.78
18500;BME280;9379;52.134;11.576;2023-11-21T08:30:28;100791.00;;;10.91;94.83
18500;BME280;9379;52.134;11.576;2023-11-21T08:32:55;100798.03;;;10.71;94.98
18500;BME280;9379;52.134;11.576;2023-11-21T08:35:23;100802.66;;;10.99;95.08
18500;BME280;9379;52.134;11.576;2023-11-21T08:37:51;100807.63;;;10.41;95.06
18500;BME280;9379;52.134;11.576;2023-11-21T08:40:18;100811.59;;;10.15;95.61
18500;BME280;9379;52.134;11.576;2023-11-21T08:42:48;100811.47;;;10.16;94.47
18500;BME280;9379;52.134;11.576;2023-11-21T08:45:17;100818.72;;;10.26;93.97
18500;BME280;9379;52.134;11.576;2023-11-21T08:47:44;100825.13;;;10.12;94.42
18500;BME280;9379;52.134;11.576;2023-11-21T08:50:11;100824.88;;;10.15;95.10
18500;BME280;9379;52.134;11.576;2023-11-21T08:52:39;100830.31;;;10.13;92.61
18500;BME280;9379;52.134;11.576;2023-11-21T08:55:06;100832.66;;;9.63;93.63
18500;BME280;9379;52.134;11.576;2023-11-21T08:57:34;100838.63;;;9.88;94.25
18500;BME280;9379;52.134;11.576;2023-11-21T09:00:04;100837.09;;;10.06;92.74
18500;BME280;9379;52.134;11.576;2023-11-21T09:02:33;100851.91;;;10.20;94.09
18500;BME280;9379;52.134;11.576;2023-11-21T09:05:00;100848.81;;;10.47;93.84
18500;BME280;9379;52.134;11.576;2023-11-21T09:07:28;100845.63;;;10.32;93.47
18500;BME280;9379;52.134;11.576;2023-11-21T09:09:56;100842.94;;;9.89;93.13
18500;BME280;9379;52.134;11.576;2023-11-21T09:12:23;100858.03;;;9.88;93.21
18500;BME280;9379;52.134;11.576;2023-11-21T09:14:51;100869.56;;;10.10;93.48
18500;BME280;9379;52.134;11.576;2023-11-21T09:17:19;100866.22;;;10.08;93.32
18500;BME280;9379;52.134;11.576;2023-11-21T09:19:46;100867.00;;;10.31;92.92
18500;BME280;9379;52.134;11.576;2023-11-21T09:22:17;100873.59;;;10.36;92.66
18500;BME280;9379;52.134;11.576;2023-11-21T09:24:44;100869.31;;;10.24;92.89
18500;BME280;9379;52.134;11.576;2023-11-21T09:27:11;100872.53;;;9.84;92.02
18500;BME280;9379;52.134;11.576;2023-11-21T09:29:37;100883.63;;;9.78;92.34
18500;BME280;9379;52.134;11.576;2023-11-21T09:32:05;100883.25;;;9.83;92.15
18500;BME280;9379;52.134;11.576;2023-11-21T09:34:35;100881.72;;;9.69;93.70
18500;BME280;9379;52.134;11.576;2023-11-21T09:37:03;100895.97;;;9.34;93.23
18500;BME280;9379;52.134;11.576;2023-11-21T09:39:32;100889.78;;;9.79;93.04
18500;BME280;9379;52.134;11.576;2023-11-21T09:42:04;100893.97;;;10.04;92.19
18500;BME280;9379;52.134;11.576;2023-11-21T09:44:44;100887.97;;;9.79;92.00
18500;BME280;9379;52.134;11.576;2023-11-21T09:47:15;100898.53;;;10.13;91.84
18500;BME280;9379;52.134;11.576;2023-11-21T09:49:46;100894.91;;;10.14;91.67
18500;BME280;9379;52.134;11.576;2023-11-21T09:52:21;100888.47;;;10.28;91.19
18500;BME280;9379;52.134;11.576;2023-11-21T09:54:50;100896.19;;;10.42;90.95
18500;BME280;9379;52.134;11.576;2023-11-21T09:57:19;100904.03;;;10.43;90.75
18500;BME280;9379;52.134;11.576;2023-11-21T09:59:51;100902.59;;;10.28;90.85
18500;BME280;9379;52.134;11.576;2023-11-21T10:02:20;100911.06;;;10.65;89.86
18500;BME280;9379;52.134;11.576;2023-11-21T10:04:53;100917.13;;;10.56;89.19
18500;BME280;9379;52.134;11.576;2023-11-21T10:07:21;100919.13;;;10.64;89.59
18500;BME280;9379;52.134;11.576;2023-11-21T10:09:48;100908.22;;;10.78;89.31
18500;BME280;9379;52.134;11.576;2023-11-21T10:12:16;100915.38;;;10.45;88.58
18500;BME280;9379;52.134;11.576;2023-11-21T10:14:48;100918.72;;;10.47;88.08
18500;BME280;9379;52.134;11.576;2023-11-21T10:17:15;100926.03;;;10.66;88.42
18500;BME280;9379;52.134;11.576;2023-11-21T10:19:46;100914.13;;;10.49;89.22
18500;BME280;9379;52.134;11.576;2023-11-21T10:22:15;100920.28;;;10.50;88.04
18500;BME280;9379;52.134;11.576;2023-11-21T10:24:43;100917.25;;;10.22;89.63
18500;BME280;9379;52.134;11.576;2023-11-21T10:27:10;100916.53;;;10.52;88.45
18500;BME280;9379;52.134;11.576;2023-11-21T10:29:36;100919.78;;;10.56;86.83
18500;BME280;9379;52.134;11.576;2023-11-21T10:32:04;100922.63;;;10.43;87.69
18500;BME280;9379;52.134;11.576;2023-11-21T10:34:32;100919.03;;;10.86;89.08
18500;BME280;9379;52.134;11.576;2023-11-21T10:37:11;100921.34;;;11.21;87.43
18500;BME280;9379;52.134;11.576;2023-11-21T10:39:39;100928.69;;;10.87;87.47
18500;BME280;9379;52.134;11.576;2023-11-21T10:42:08;100935.75;;;10.56;86.57
18500;BME280;9379;52.134;11.576;2023-11-21T10:44:35;100942.22;;;10.20;88.38
18500;BME280;9379;52.134;11.576;2023-11-21T10:47:03;100942.44;;;10.28;87.07
18500;BME280;9379;52.134;11.576;2023-11-21T10:49:30;100945.88;;;10.08;87.01
18500;BME280;9379;52.134;11.576;2023-11-21T10:51:57;100955.66;;;10.07;89.78
18500;BME280;9379;52.134;11.576;2023-11-21T10:54:25;100959.63;;;10.24;88.05
18500;BME280;9379;52.134;11.576;2023-11-21T10:56:57;100954.47;;;10.55;87.88
18500;BME280;9379;52.134;11.576;2023-11-21T10:59:25;100960.38;;;10.58;87.12
18500;BME280;9379;52.134;11.576;2023-11-21T11:01:57;100963.25;;;10.66;86.57
18500;BME280;9379;52.134;11.576;2023-11-21T11:04:27;100961.97;;;10.49;85.86
18500;BME280;9379;52.134;11.576;2023-11-21T11:06:57;100962.38;;;10.34;85.71
18500;BME280;9379;52.134;11.576;2023-11-21T11:09:24;100970.47;;;10.32;88.72
18500;BME280;9379;52.134;11.576;2023-11-21T11:11:51;100967.94;;;10.42;86.75
18500;BME280;9379;52.134;11.576;2023-11-21T11:14:20;100964.41;;;10.30;87.47
18500;BME280;9379;52.134;11.576;2023-11-21T11:16:52;100967.41;;;10.48;88.57
18500;BME280;9379;52.134;11.576;2023-11-21T11:19:20;100977.59;;;10.43;89.38
18500;BME280;9379;52.134;11.576;2023-11-21T11:21:53;100974.03;;;10.54;87.34
18500;BME280;9379;52.134;11.576;2023-11-21T11:24:45;100982.75;;;10.44;88.14
18500;BME280;9379;52.134;11.576;2023-11-21T11:27:22;100993.50;;;10.54;87.55
18500;BME280;9379;52.134;11.576;2023-11-21T11:30:02;100993.50;;;10.54;88.71
18500;BME280;9379;52.134;11.576;2023-11-21T11:32:40;100989.41;;;10.39;87.60
18500;BME280;9379;52.134;11.576;2023-11-21T11:35:13;100990.00;;;10.54;88.23
18500;BME280;9379;52.134;11.576;2023-11-21T11:37:43;100991.38;;;10.26;87.29
18500;BME280;9379;52.134;11.576;2023-11-21T11:40:11;100999.19;;;10.38;88.56
18500;BME280;9379;52.134;11.576;2023-11-21T11:42:38;100996.44;;;10.06;87.31
18500;BME280;9379;52.134;11.576;2023-11-21T11:45:18;101001.28;;;9.68;87.56
18500;BME280;9379;52.134;11.576;2023-11-21T11:47:47;101000.69;;;9.86;87.43
18500;BME280;9379;52.134;11.576;2023-11-21T11:50:14;100995.97;;;10.01;87.38
18500;BME280;9379;52.134;11.576;2023-11-21T11:52:43;100999.59;;;10.00;86.59
18500;BME280;9379;52.134;11.576;2023-11-21T11:55:12;101000.69;;;10.31;85.30
18500;BME280;9379;52.134;11.576;2023-11-21T11:57:40;101004.59;;;10.48;86.02
18500;BME280;9379;52.134;11.576;2023-11-21T12:00:12;101004.16;;;10.43;85.71
18500;BME280;9379;52.134;11.576;2023-11-21T12:02:44;101002.75;;;10.60;84.96
18500;BME280;9379;52.134;11.576;2023-11-21T12:05:12;101005.22;;;10.40;86.78
18500;BME280;9379;52.134;11.576;2023-11-21T12:07:44;101008.63;;;10.09;86.49
18500;BME280;9379;52.134;11.576;2023-11-21T12:10:13;101013.00;;;9.87;86.68
18500;BME280;9379;52.134;11.576;2023-11-21T12:12:44;101011.19;;;10.21;87.17
18500;BME280;9379;52.134;11.576;2023-11-21T12:15:12;101025.31;;;10.22;87.14
18500;BME280;9379;52.134;11.576;2023-11-21T12:17:41;101020.81;;;9.89;87.88
18500;BME280;9379;52.134;11.576;2023-11-21T12:20:11;101023.09;;;10.05;87.20
18500;BME280;9379;52.134;11.576;2023-11-21T12:22:43;101030.84;;;10.19;87.61
18500;BME280;9379;52.134;11.576;2023-11-21T12:25:13;101031.69;;;10.19;86.94
18500;BME280;9379;52.134;11.576;2023-11-21T12:27:42;101037.72;;;9.77;87.36
18500;BME280;9379;52.134;11.576;2023-11-21T12:30:13;101041.69;;;9.82;86.61
18500;BME280;9379;52.134;11.576;2023-11-21T12:32:42;101041.09;;;10.12;86.42
18500;BME280;9379;52.134;11.576;2023-11-21T12:35:10;101050.53;;;10.28;85.71
18500;BME280;9379;52.134;11.576;2023-11-21T12:37:38;101060.06;;;10.08;85.26
18500;BME280;9379;52.134;11.576;2023-11-21T12:40:06;101050.63;;;10.48;86.05
18500;BME280;9379;52.134;11.576;2023-11-21T12:42:37;101059.56;;;10.47;86.56
18500;BME280;9379;52.134;11.576;2023-11-21T12:45:07;101047.63;;;9.97;87.63
18500;BME280;9379;52.134;11.576;2023-11-21T12:47:40;101059.94;;;10.20;88.98
18500;BME280;9379;52.134;11.576;2023-11-21T12:50:07;101074.09;;;10.32;85.93